sensor_id;sensor_type;location;lat;lon;timestamp;P1;durP1;ratioP1;P2;durP2;ratioP2
29848;SDS011;16728;50.832;5.590;2022-10-28T00:00:08;13.73;;;4.13;;
29848;SDS011;16728;50.832;5.590;2022-10-28T00:03:10;11.43;;;3.53;;
29848;SDS011;16728;50.832;5.590;2022-10-28T00:06:13;13.38;;;4.18;;
29848;SDS011;16728;50.832;5.590;2022-10-28T00:09:17;17.95;;;4.75;;
29848;SDS011;16728;50.832;5.590;2022-10-28T00:12:19;10.32;;;4.20;;
29848;SDS011;16728;50.832;5.590;2022-10-28T00:15:21;12.65;;;4.60;;
29848;SDS011;16728;50.832;5.590;2022-10-28T00:18:22;12.90;;;4.32;;
29848;SDS011;16728;50.832;5.590;2022-10-28T00:21:26;8.75;;;3.50;;
29848;SDS011;16728;50.832;5.590;2022-10-28T00:24:30;12.18;;;4.20;;
29848;SDS011;16728;50.832;5.590;2022-10-28T00:27:32;11.20;;;4.20;;
29848;SDS011;16728;50.832;5.590;2022-10-28T00:30:34;12.98;;;4.03;;
29848;SDS011;16728;50.832;5.590;2022-10-28T00:33:36;10.65;;;4.38;;
29848;SDS011;16728;50.832;5.590;2022-10-28T00:36:39;10.80;;;4.10;;
29848;SDS011;16728;50.832;5.590;2022-10-28T00:39:42;13.70;;;4.28;;
29848;SDS011;16728;50.832;5.590;2022-10-28T00:42:45;9.60;;;4.63;;
29848;SDS011;16728;50.832;5.590;2022-10-28T00:45:46;13.13;;;3.88;;
29848;SDS011;16728;50.832;5.590;2022-10-28T00:48:49;13.45;;;4.28;;
29848;SDS011;16728;50.832;5.590;2022-10-28T00:51:57;10.98;;;3.85;;
29848;SDS011;16728;50.832;5.590;2022-10-28T00:55:03;12.43;;;4.60;;
29848;SDS011;16728;50.832;5.590;2022-10-28T00:58:05;11.80;;;5.10;;
29848;SDS011;16728;50.832;5.590;2022-10-28T01:01:09;9.38;;;4.40;;
29848;SDS011;16728;50.832;5.590;2022-10-28T01:04:11;13.75;;;4.40;;
29848;SDS011;16728;50.832;5.590;2022-10-28T01:07:14;11.95;;;4.13;;
29848;SDS011;16728;50.832;5.590;2022-10-28T01:10:17;13.35;;;4.28;;
29848;SDS011;16728;50.832;5.590;2022-10-28T01:26:48;18.20;;;4.85;;
29848;SDS011;16728;50.832;5.590;2022-10-28T01:30:19;7.88;;;3.75;;
29848;SDS011;16728;50.832;5.590;2022-10-28T01:33:25;10.00;;;3.95;;
29848;SDS011;16728;50.832;5.590;2022-10-28T01:40:07;11.77;;;4.00;;
29848;SDS011;16728;50.832;5.590;2022-10-28T01:43:40;12.02;;;4.03;;
29848;SDS011;16728;50.832;5.590;2022-10-28T01:53:58;12.15;;;4.43;;
29848;SDS011;16728;50.832;5.590;2022-10-28T01:57:03;15.25;;;4.05;;
29848;SDS011;16728;50.832;5.590;2022-10-28T02:00:06;15.45;;;4.60;;
29848;SDS011;16728;50.832;5.590;2022-10-28T02:03:09;10.10;;;3.78;;
29848;SDS011;16728;50.832;5.590;2022-10-28T02:06:14;13.88;;;4.10;;
29848;SDS011;16728;50.832;5.590;2022-10-28T02:09:24;11.88;;;4.13;;
29848;SDS011;16728;50.832;5.590;2022-10-28T02:12:40;13.60;;;4.30;;
29848;SDS011;16728;50.832;5.590;2022-10-28T02:25:26;11.20;;;3.72;;
29848;SDS011;16728;50.832;5.590;2022-10-28T02:28:38;17.73;;;4.90;;
29848;SDS011;16728;50.832;5.590;2022-10-28T02:31:48;12.52;;;4.35;;
29848;SDS011;16728;50.832;5.590;2022-10-28T02:34:57;11.93;;;4.87;;
29848;SDS011;16728;50.832;5.590;2022-10-28T02:38:01;12.73;;;4.47;;
29848;SDS011;16728;50.832;5.590;2022-10-28T02:41:15;10.93;;;4.30;;
29848;SDS011;16728;50.832;5.590;2022-10-28T02:44:25;9.73;;;4.03;;
29848;SDS011;16728;50.832;5.590;2022-10-28T02:47:32;12.45;;;4.13;;
29848;SDS011;16728;50.832;5.590;2022-10-28T02:50:44;14.25;;;4.45;;
29848;SDS011;16728;50.832;5.590;2022-10-28T02:57:14;12.15;;;4.45;;
29848;SDS011;16728;50.832;5.590;2022-10-28T03:00:19;11.18;;;4.85;;
29848;SDS011;16728;50.832;5.590;2022-10-28T03:03:25;12.63;;;4.13;;
29848;SDS011;16728;50.832;5.590;2022-10-28T03:06:27;11.60;;;3.92;;
29848;SDS011;16728;50.832;5.590;2022-10-28T03:09:28;13.15;;;4.18;;
29848;SDS011;16728;50.832;5.590;2022-10-28T03:12:30;14.48;;;4.25;;
29848;SDS011;16728;50.832;5.590;2022-10-28T03:15:32;11.73;;;4.47;;
29848;SDS011;16728;50.832;5.590;2022-10-28T03:18:34;16.25;;;3.78;;
29848;SDS011;16728;50.832;5.590;2022-10-28T03:21:36;15.25;;;4.35;;
29848;SDS011;16728;50.832;5.590;2022-10-28T03:24:38;18.45;;;4.45;;
29848;SDS011;16728;50.832;5.590;2022-10-28T03:27:40;12.15;;;4.57;;
29848;SDS011;16728;50.832;5.590;2022-10-28T03:30:41;13.70;;;4.95;;
29848;SDS011;16728;50.832;5.590;2022-10-28T03:33:43;13.90;;;4.22;;
29848;SDS011;16728;50.832;5.590;2022-10-28T03:36:45;16.88;;;5.13;;
29848;SDS011;16728;50.832;5.590;2022-10-28T03:39:47;12.05;;;3.70;;
29848;SDS011;16728;50.832;5.590;2022-10-28T03:42:49;14.43;;;4.45;;
29848;SDS011;16728;50.832;5.590;2022-10-28T03:45:51;10.20;;;4.30;;
29848;SDS011;16728;50.832;5.590;2022-10-28T03:48:53;17.77;;;4.53;;
29848;SDS011;16728;50.832;5.590;2022-10-28T03:51:55;14.20;;;4.15;;
29848;SDS011;16728;50.832;5.590;2022-10-28T03:54:57;14.07;;;4.65;;
29848;SDS011;16728;50.832;5.590;2022-10-28T03:57:59;9.77;;;4.65;;
29848;SDS011;16728;50.832;5.590;2022-10-28T04:01:01;14.48;;;4.25;;
29848;SDS011;16728;50.832;5.590;2022-10-28T04:04:03;13.68;;;4.50;;
29848;SDS011;16728;50.832;5.590;2022-10-28T04:07:06;14.50;;;4.50;;
29848;SDS011;16728;50.832;5.590;2022-10-28T04:10:07;9.38;;;4.18;;
29848;SDS011;16728;50.832;5.590;2022-10-28T04:13:10;9.45;;;4.35;;
29848;SDS011;16728;50.832;5.590;2022-10-28T04:16:13;11.02;;;4.47;;
29848;SDS011;16728;50.832;5.590;2022-10-28T04:19:14;13.27;;;5.03;;
29848;SDS011;16728;50.832;5.590;2022-10-28T04:22:16;10.98;;;3.97;;
29848;SDS011;16728;50.832;5.590;2022-10-28T04:25:18;11.50;;;4.68;;
29848;SDS011;16728;50.832;5.590;2022-10-28T04:28:20;13.57;;;3.65;;
29848;SDS011;16728;50.832;5.590;2022-10-28T04:31:26;14.48;;;4.20;;
29848;SDS011;16728;50.832;5.590;2022-10-28T04:34:27;12.95;;;4.93;;
29848;SDS011;16728;50.832;5.590;2022-10-28T04:37:29;10.63;;;4.45;;
29848;SDS011;16728;50.832;5.590;2022-10-28T04:40:31;8.82;;;4.28;;
29848;SDS011;16728;50.832;5.590;2022-10-28T04:43:33;10.27;;;4.07;;
29848;SDS011;16728;50.832;5.590;2022-10-28T04:46:34;19.10;;;4.90;;
29848;SDS011;16728;50.832;5.590;2022-10-28T04:49:36;9.73;;;4.45;;
29848;SDS011;16728;50.832;5.590;2022-10-28T04:52:39;18.25;;;5.07;;
29848;SDS011;16728;50.832;5.590;2022-10-28T04:55:41;13.23;;;4.43;;
29848;SDS011;16728;50.832;5.590;2022-10-28T04:58:43;11.05;;;4.30;;
29848;SDS011;16728;50.832;5.590;2022-10-28T05:01:45;15.50;;;5.03;;
29848;SDS011;16728;50.832;5.590;2022-10-28T05:04:47;15.50;;;5.00;;
29848;SDS011;16728;50.832;5.590;2022-10-28T05:07:48;14.90;;;5.15;;
29848;SDS011;16728;50.832;5.590;2022-10-28T05:10:50;15.13;;;5.30;;
29848;SDS011;16728;50.832;5.590;2022-10-28T05:13:52;13.25;;;4.95;;
29848;SDS011;16728;50.832;5.590;2022-10-28T05:16:54;12.73;;;5.15;;
29848;SDS011;16728;50.832;5.590;2022-10-28T05:19:56;17.13;;;4.85;;
29848;SDS011;16728;50.832;5.590;2022-10-28T05:22:58;17.15;;;5.28;;
29848;SDS011;16728;50.832;5.590;2022-10-28T05:25:59;11.20;;;4.78;;
29848;SDS011;16728;50.832;5.590;2022-10-28T05:29:01;16.58;;;5.53;;
29848;SDS011;16728;50.832;5.590;2022-10-28T05:32:03;13.10;;;5.13;;
29848;SDS011;16728;50.832;5.590;2022-10-28T05:35:10;13.60;;;5.05;;
29848;SDS011;16728;50.832;5.590;2022-10-28T05:38:12;13.32;;;4.72;;
29848;SDS011;16728;50.832;5.590;2022-10-28T05:41:14;15.70;;;5.20;;
29848;SDS011;16728;50.832;5.590;2022-10-28T05:44:16;12.80;;;4.68;;
29848;SDS011;16728;50.832;5.590;2022-10-28T05:47:18;10.68;;;4.65;;
29848;SDS011;16728;50.832;5.590;2022-10-28T05:50:20;15.95;;;5.15;;
29848;SDS011;16728;50.832;5.590;2022-10-28T05:53:22;15.97;;;5.43;;
29848;SDS011;16728;50.832;5.590;2022-10-28T05:56:25;13.57;;;5.15;;
29848;SDS011;16728;50.832;5.590;2022-10-28T05:59:27;16.75;;;5.20;;
29848;SDS011;16728;50.832;5.590;2022-10-28T06:02:29;16.27;;;4.82;;
29848;SDS011;16728;50.832;5.590;2022-10-28T06:05:31;16.50;;;5.15;;
29848;SDS011;16728;50.832;5.590;2022-10-28T06:08:33;14.27;;;5.38;;
29848;SDS011;16728;50.832;5.590;2022-10-28T06:11:35;16.42;;;5.25;;
29848;SDS011;16728;50.832;5.590;2022-10-28T06:14:37;13.43;;;4.97;;
29848;SDS011;16728;50.832;5.590;2022-10-28T06:17:39;15.18;;;5.47;;
29848;SDS011;16728;50.832;5.590;2022-10-28T06:20:40;15.05;;;5.40;;
29848;SDS011;16728;50.832;5.590;2022-10-28T06:23:42;13.27;;;5.30;;
29848;SDS011;16728;50.832;5.590;2022-10-28T06:26:44;13.63;;;5.55;;
29848;SDS011;16728;50.832;5.590;2022-10-28T06:29:46;15.20;;;4.82;;
29848;SDS011;16728;50.832;5.590;2022-10-28T06:32:48;14.68;;;4.68;;
29848;SDS011;16728;50.832;5.590;2022-10-28T06:35:50;18.75;;;5.22;;
29848;SDS011;16728;50.832;5.590;2022-10-28T06:38:58;11.45;;;4.72;;
29848;SDS011;16728;50.832;5.590;2022-10-28T06:42:00;17.45;;;5.47;;
29848;SDS011;16728;50.832;5.590;2022-10-28T06:45:02;15.43;;;5.85;;
29848;SDS011;16728;50.832;5.590;2022-10-28T06:48:04;11.30;;;4.77;;
29848;SDS011;16728;50.832;5.590;2022-10-28T06:51:07;13.60;;;5.65;;
29848;SDS011;16728;50.832;5.590;2022-10-28T06:54:09;14.30;;;5.03;;
29848;SDS011;16728;50.832;5.590;2022-10-28T06:57:11;21.73;;;5.60;;
29848;SDS011;16728;50.832;5.590;2022-10-28T07:00:13;16.33;;;5.40;;
29848;SDS011;16728;50.832;5.590;2022-10-28T07:03:15;16.60;;;5.57;;
29848;SDS011;16728;50.832;5.590;2022-10-28T07:09:20;13.70;;;5.00;;
29848;SDS011;16728;50.832;5.590;2022-10-28T07:12:22;10.95;;;5.15;;
29848;SDS011;16728;50.832;5.590;2022-10-28T07:15:24;18.65;;;5.40;;
29848;SDS011;16728;50.832;5.590;2022-10-28T07:18:27;15.38;;;5.25;;
29848;SDS011;16728;50.832;5.590;2022-10-28T07:21:30;15.30;;;5.32;;
29848;SDS011;16728;50.832;5.590;2022-10-28T07:24:32;13.88;;;5.07;;
29848;SDS011;16728;50.832;5.590;2022-10-28T07:27:33;14.43;;;4.93;;
29848;SDS011;16728;50.832;5.590;2022-10-28T07:30:35;11.77;;;4.80;;
29848;SDS011;16728;50.832;5.590;2022-10-28T07:33:37;21.40;;;5.85;;
29848;SDS011;16728;50.832;5.590;2022-10-28T07:36:39;14.13;;;5.35;;
29848;SDS011;16728;50.832;5.590;2022-10-28T07:39:41;13.48;;;4.47;;
29848;SDS011;16728;50.832;5.590;2022-10-28T07:42:42;13.05;;;5.07;;
29848;SDS011;16728;50.832;5.590;2022-10-28T07:45:44;15.90;;;4.97;;
29848;SDS011;16728;50.832;5.590;2022-10-28T07:48:46;13.43;;;4.43;;
29848;SDS011;16728;50.832;5.590;2022-10-28T07:51:51;13.00;;;4.63;;
29848;SDS011;16728;50.832;5.590;2022-10-28T07:54:53;15.80;;;5.18;;
29848;SDS011;16728;50.832;5.590;2022-10-28T07:57:55;17.45;;;5.13;;
29848;SDS011;16728;50.832;5.590;2022-10-28T08:01:00;23.55;;;5.07;;
29848;SDS011;16728;50.832;5.590;2022-10-28T08:04:04;14.80;;;5.32;;
29848;SDS011;16728;50.832;5.590;2022-10-28T08:07:06;14.23;;;5.90;;
29848;SDS011;16728;50.832;5.590;2022-10-28T08:10:08;19.67;;;5.15;;
29848;SDS011;16728;50.832;5.590;2022-10-28T08:13:09;14.15;;;4.88;;
29848;SDS011;16728;50.832;5.590;2022-10-28T08:16:12;14.90;;;5.22;;
29848;SDS011;16728;50.832;5.590;2022-10-28T08:19:14;9.43;;;4.47;;
29848;SDS011;16728;50.832;5.590;2022-10-28T08:22:16;14.05;;;4.75;;
29848;SDS011;16728;50.832;5.590;2022-10-28T08:25:18;15.85;;;5.28;;
29848;SDS011;16728;50.832;5.590;2022-10-28T08:28:20;13.88;;;4.65;;
29848;SDS011;16728;50.832;5.590;2022-10-28T08:31:22;15.95;;;4.70;;
29848;SDS011;16728;50.832;5.590;2022-10-28T08:34:24;20.88;;;5.10;;
29848;SDS011;16728;50.832;5.590;2022-10-28T08:37:30;12.57;;;4.30;;
29848;SDS011;16728;50.832;5.590;2022-10-28T08:43:55;23.23;;;5.65;;
29848;SDS011;16728;50.832;5.590;2022-10-28T08:47:08;19.25;;;5.97;;
29848;SDS011;16728;50.832;5.590;2022-10-28T08:50:39;22.08;;;6.90;;
29848;SDS011;16728;50.832;5.590;2022-10-28T08:56:53;13.90;;;5.07;;
29848;SDS011;16728;50.832;5.590;2022-10-28T09:00:00;19.08;;;4.68;;
29848;SDS011;16728;50.832;5.590;2022-10-28T09:06:13;13.88;;;5.28;;
29848;SDS011;16728;50.832;5.590;2022-10-28T09:09:16;15.52;;;4.47;;
29848;SDS011;16728;50.832;5.590;2022-10-28T09:15:41;13.25;;;3.97;;
29848;SDS011;16728;50.832;5.590;2022-10-28T09:22:38;15.25;;;4.38;;
29848;SDS011;16728;50.832;5.590;2022-10-28T09:29:24;19.40;;;4.15;;
29848;SDS011;16728;50.832;5.590;2022-10-28T09:32:42;12.20;;;4.45;;
29848;SDS011;16728;50.832;5.590;2022-10-28T09:35:51;21.30;;;5.55;;
29848;SDS011;16728;50.832;5.590;2022-10-28T09:38:55;20.30;;;4.90;;
29848;SDS011;16728;50.832;5.590;2022-10-28T09:41:58;13.57;;;4.53;;
29848;SDS011;16728;50.832;5.590;2022-10-28T09:45:02;15.97;;;4.93;;
29848;SDS011;16728;50.832;5.590;2022-10-28T09:51:30;14.63;;;5.30;;
29848;SDS011;16728;50.832;5.590;2022-10-28T09:54:49;12.85;;;4.15;;
29848;SDS011;16728;50.832;5.590;2022-10-28T09:57:53;18.13;;;4.03;;
29848;SDS011;16728;50.832;5.590;2022-10-28T10:00:55;14.87;;;4.53;;
29848;SDS011;16728;50.832;5.590;2022-10-28T10:03:57;14.88;;;4.40;;
29848;SDS011;16728;50.832;5.590;2022-10-28T10:07:04;11.80;;;3.95;;
29848;SDS011;16728;50.832;5.590;2022-10-28T10:10:12;14.27;;;4.20;;
29848;SDS011;16728;50.832;5.590;2022-10-28T10:13:27;14.43;;;3.63;;
29848;SDS011;16728;50.832;5.590;2022-10-28T10:16:46;11.13;;;3.63;;
29848;SDS011;16728;50.832;5.590;2022-10-28T10:22:59;17.65;;;3.47;;
29848;SDS011;16728;50.832;5.590;2022-10-28T10:26:04;18.05;;;3.80;;
29848;SDS011;16728;50.832;5.590;2022-10-28T10:29:12;11.38;;;3.30;;
29848;SDS011;16728;50.832;5.590;2022-10-28T10:35:27;14.25;;;4.57;;
29848;SDS011;16728;50.832;5.590;2022-10-28T10:44:41;12.40;;;3.92;;
29848;SDS011;16728;50.832;5.590;2022-10-28T10:47:44;18.45;;;4.30;;
29848;SDS011;16728;50.832;5.590;2022-10-28T10:50:46;13.43;;;3.92;;
29848;SDS011;16728;50.832;5.590;2022-10-28T10:53:50;13.25;;;3.75;;
29848;SDS011;16728;50.832;5.590;2022-10-28T10:57:07;15.15;;;4.32;;
29848;SDS011;16728;50.832;5.590;2022-10-28T11:00:20;11.07;;;3.75;;
29848;SDS011;16728;50.832;5.590;2022-10-28T11:03:38;15.77;;;4.00;;
29848;SDS011;16728;50.832;5.590;2022-10-28T11:07:01;18.85;;;4.10;;
29848;SDS011;16728;50.832;5.590;2022-10-28T11:10:04;16.15;;;4.00;;
29848;SDS011;16728;50.832;5.590;2022-10-28T11:16:47;15.00;;;3.97;;
29848;SDS011;16728;50.832;5.590;2022-10-28T11:19:52;10.25;;;4.22;;
29848;SDS011;16728;50.832;5.590;2022-10-28T11:23:06;23.70;;;4.68;;
29848;SDS011;16728;50.832;5.590;2022-10-28T11:26:18;13.40;;;3.85;;
29848;SDS011;16728;50.832;5.590;2022-10-28T11:29:23;17.10;;;4.00;;
29848;SDS011;16728;50.832;5.590;2022-10-28T11:56:41;12.10;;;3.55;;
29848;SDS011;16728;50.832;5.590;2022-10-28T12:07:04;10.05;;;4.20;;
29848;SDS011;16728;50.832;5.590;2022-10-28T12:20:16;12.57;;;4.18;;
29848;SDS011;16728;50.832;5.590;2022-10-28T12:23:24;15.25;;;4.05;;
29848;SDS011;16728;50.832;5.590;2022-10-28T12:26:34;13.48;;;3.97;;
29848;SDS011;16728;50.832;5.590;2022-10-28T12:29:43;14.55;;;4.13;;
29848;SDS011;16728;50.832;5.590;2022-10-28T12:32:50;14.05;;;3.53;;
29848;SDS011;16728;50.832;5.590;2022-10-28T12:36:11;19.38;;;4.40;;
29848;SDS011;16728;50.832;5.590;2022-10-28T12:39:26;14.13;;;4.47;;
29848;SDS011;16728;50.832;5.590;2022-10-28T12:42:38;20.00;;;4.68;;
29848;SDS011;16728;50.832;5.590;2022-10-28T12:45:48;8.75;;;3.35;;
29848;SDS011;16728;50.832;5.590;2022-10-28T12:48:56;15.45;;;3.85;;
29848;SDS011;16728;50.832;5.590;2022-10-28T12:52:19;11.07;;;3.55;;
29848;SDS011;16728;50.832;5.590;2022-10-28T13:02:23;15.52;;;3.95;;
29848;SDS011;16728;50.832;5.590;2022-10-28T13:26:25;12.90;;;3.40;;
29848;SDS011;16728;50.832;5.590;2022-10-28T13:29:33;16.60;;;4.57;;
29848;SDS011;16728;50.832;5.590;2022-10-28T13:32:36;14.20;;;3.97;;
29848;SDS011;16728;50.832;5.590;2022-10-28T13:35:40;15.50;;;4.53;;
29848;SDS011;16728;50.832;5.590;2022-10-28T13:38:47;13.73;;;4.00;;
29848;SDS011;16728;50.832;5.590;2022-10-28T13:48:48;12.77;;;4.22;;
29848;SDS011;16728;50.832;5.590;2022-10-28T13:51:50;15.88;;;4.15;;
29848;SDS011;16728;50.832;5.590;2022-10-28T13:58:26;17.48;;;4.65;;
29848;SDS011;16728;50.832;5.590;2022-10-28T14:01:50;14.80;;;4.30;;
29848;SDS011;16728;50.832;5.590;2022-10-28T14:05:15;13.25;;;4.40;;
29848;SDS011;16728;50.832;5.590;2022-10-28T14:11:23;14.50;;;4.25;;
29848;SDS011;16728;50.832;5.590;2022-10-28T14:14:28;18.60;;;4.38;;
29848;SDS011;16728;50.832;5.590;2022-10-28T14:17:37;18.73;;;3.97;;
29848;SDS011;16728;50.832;5.590;2022-10-28T14:20:41;23.38;;;4.68;;
29848;SDS011;16728;50.832;5.590;2022-10-28T14:24:05;14.43;;;4.25;;
29848;SDS011;16728;50.832;5.590;2022-10-28T14:30:16;10.60;;;4.65;;
29848;SDS011;16728;50.832;5.590;2022-10-28T14:33:20;18.42;;;4.65;;
29848;SDS011;16728;50.832;5.590;2022-10-28T14:39:39;14.60;;;4.05;;
29848;SDS011;16728;50.832;5.590;2022-10-28T14:43:20;12.88;;;4.32;;
29848;SDS011;16728;50.832;5.590;2022-10-28T14:46:46;15.57;;;4.22;;
29848;SDS011;16728;50.832;5.590;2022-10-28T14:53:26;15.32;;;4.22;;
29848;SDS011;16728;50.832;5.590;2022-10-28T14:56:30;15.98;;;4.40;;
29848;SDS011;16728;50.832;5.590;2022-10-28T14:59:36;13.90;;;4.07;;
29848;SDS011;16728;50.832;5.590;2022-10-28T15:02:42;20.77;;;5.07;;
29848;SDS011;16728;50.832;5.590;2022-10-28T15:05:44;18.98;;;4.70;;
29848;SDS011;16728;50.832;5.590;2022-10-28T15:08:45;11.65;;;4.07;;
29848;SDS011;16728;50.832;5.590;2022-10-28T15:11:52;18.65;;;4.97;;
29848;SDS011;16728;50.832;5.590;2022-10-28T15:15:01;14.43;;;4.53;;
29848;SDS011;16728;50.832;5.590;2022-10-28T15:18:16;15.32;;;4.88;;
29848;SDS011;16728;50.832;5.590;2022-10-28T15:21:22;13.35;;;5.00;;
29848;SDS011;16728;50.832;5.590;2022-10-28T15:24:23;15.95;;;4.93;;
29848;SDS011;16728;50.832;5.590;2022-10-28T15:27:35;18.48;;;4.97;;
29848;SDS011;16728;50.832;5.590;2022-10-28T15:30:39;14.25;;;5.00;;
29848;SDS011;16728;50.832;5.590;2022-10-28T15:33:47;20.27;;;5.25;;
29848;SDS011;16728;50.832;5.590;2022-10-28T15:36:48;17.95;;;5.15;;
29848;SDS011;16728;50.832;5.590;2022-10-28T15:39:51;15.63;;;5.20;;
29848;SDS011;16728;50.832;5.590;2022-10-28T15:43:19;21.13;;;5.80;;
29848;SDS011;16728;50.832;5.590;2022-10-28T15:46:26;20.35;;;4.97;;
29848;SDS011;16728;50.832;5.590;2022-10-28T15:52:36;15.98;;;5.10;;
29848;SDS011;16728;50.832;5.590;2022-10-28T15:55:41;14.38;;;4.60;;
29848;SDS011;16728;50.832;5.590;2022-10-28T15:59:15;18.60;;;4.90;;
29848;SDS011;16728;50.832;5.590;2022-10-28T16:02:37;21.85;;;5.43;;
29848;SDS011;16728;50.832;5.590;2022-10-28T16:05:42;19.40;;;4.95;;
29848;SDS011;16728;50.832;5.590;2022-10-28T16:08:45;19.17;;;4.57;;
29848;SDS011;16728;50.832;5.590;2022-10-28T16:12:02;12.60;;;4.65;;
29848;SDS011;16728;50.832;5.590;2022-10-28T16:15:17;15.02;;;4.40;;
29848;SDS011;16728;50.832;5.590;2022-10-28T16:18:21;17.42;;;4.93;;
29848;SDS011;16728;50.832;5.590;2022-10-28T16:21:24;14.88;;;5.05;;
29848;SDS011;16728;50.832;5.590;2022-10-28T16:24:27;13.37;;;4.93;;
29848;SDS011;16728;50.832;5.590;2022-10-28T16:27:29;15.48;;;4.93;;
29848;SDS011;16728;50.832;5.590;2022-10-28T16:33:34;25.38;;;5.22;;
29848;SDS011;16728;50.832;5.590;2022-10-28T16:36:38;15.95;;;4.70;;
29848;SDS011;16728;50.832;5.590;2022-10-28T16:39:40;12.10;;;4.88;;
29848;SDS011;16728;50.832;5.590;2022-10-28T16:42:41;18.67;;;5.32;;
29848;SDS011;16728;50.832;5.590;2022-10-28T16:45:46;16.23;;;4.82;;
29848;SDS011;16728;50.832;5.590;2022-10-28T16:48:49;17.00;;;5.70;;
29848;SDS011;16728;50.832;5.590;2022-10-28T16:51:51;15.90;;;5.40;;
29848;SDS011;16728;50.832;5.590;2022-10-28T16:54:55;22.27;;;6.00;;
29848;SDS011;16728;50.832;5.590;2022-10-28T17:00:59;20.77;;;5.88;;
29848;SDS011;16728;50.832;5.590;2022-10-28T17:04:01;20.35;;;5.38;;
29848;SDS011;16728;50.832;5.590;2022-10-28T17:07:03;14.60;;;5.00;;
29848;SDS011;16728;50.832;5.590;2022-10-28T17:10:05;10.65;;;5.00;;
29848;SDS011;16728;50.832;5.590;2022-10-28T17:13:14;15.90;;;6.17;;
29848;SDS011;16728;50.832;5.590;2022-10-28T17:16:16;16.67;;;5.18;;
29848;SDS011;16728;50.832;5.590;2022-10-28T17:19:18;20.90;;;6.97;;
29848;SDS011;16728;50.832;5.590;2022-10-28T17:22:20;18.02;;;5.65;;
29848;SDS011;16728;50.832;5.590;2022-10-28T17:25:22;13.82;;;5.53;;
29848;SDS011;16728;50.832;5.590;2022-10-28T17:28:25;14.50;;;5.20;;
29848;SDS011;16728;50.832;5.590;2022-10-28T17:31:27;22.55;;;5.43;;
29848;SDS011;16728;50.832;5.590;2022-10-28T17:34:29;16.98;;;5.00;;
29848;SDS011;16728;50.832;5.590;2022-10-28T17:37:30;14.35;;;5.38;;
29848;SDS011;16728;50.832;5.590;2022-10-28T17:40:33;17.20;;;5.70;;
29848;SDS011;16728;50.832;5.590;2022-10-28T17:43:38;16.65;;;4.97;;
29848;SDS011;16728;50.832;5.590;2022-10-28T17:46:40;19.33;;;5.40;;
29848;SDS011;16728;50.832;5.590;2022-10-28T17:49:41;14.88;;;5.28;;
29848;SDS011;16728;50.832;5.590;2022-10-28T17:52:43;18.27;;;5.43;;
29848;SDS011;16728;50.832;5.590;2022-10-28T17:55:53;16.30;;;5.93;;
29848;SDS011;16728;50.832;5.590;2022-10-28T17:58:59;20.70;;;6.07;;
29848;SDS011;16728;50.832;5.590;2022-10-28T18:02:01;25.98;;;6.50;;
29848;SDS011;16728;50.832;5.590;2022-10-28T18:05:04;15.85;;;6.00;;
29848;SDS011;16728;50.832;5.590;2022-10-28T18:08:06;18.13;;;5.93;;
29848;SDS011;16728;50.832;5.590;2022-10-28T18:11:11;17.67;;;5.38;;
29848;SDS011;16728;50.832;5.590;2022-10-28T18:14:15;15.50;;;5.68;;
29848;SDS011;16728;50.832;5.590;2022-10-28T18:17:18;18.83;;;6.10;;
29848;SDS011;16728;50.832;5.590;2022-10-28T18:20:21;19.48;;;6.30;;
29848;SDS011;16728;50.832;5.590;2022-10-28T18:23:23;25.88;;;9.88;;
29848;SDS011;16728;50.832;5.590;2022-10-28T18:26:25;23.35;;;11.23;;
29848;SDS011;16728;50.832;5.590;2022-10-28T18:29:27;23.30;;;10.55;;
29848;SDS011;16728;50.832;5.590;2022-10-28T18:32:29;22.73;;;10.32;;
29848;SDS011;16728;50.832;5.590;2022-10-28T18:35:32;22.05;;;8.82;;
29848;SDS011;16728;50.832;5.590;2022-10-28T18:38:34;20.98;;;7.95;;
29848;SDS011;16728;50.832;5.590;2022-10-28T18:41:37;16.80;;;6.47;;
29848;SDS011;16728;50.832;5.590;2022-10-28T18:44:42;17.50;;;5.82;;
29848;SDS011;16728;50.832;5.590;2022-10-28T18:47:43;15.82;;;6.15;;
29848;SDS011;16728;50.832;5.590;2022-10-28T18:50:55;21.10;;;6.80;;
29848;SDS011;16728;50.832;5.590;2022-10-28T18:54:02;21.83;;;6.45;;
29848;SDS011;16728;50.832;5.590;2022-10-28T18:57:04;16.83;;;6.72;;
29848;SDS011;16728;50.832;5.590;2022-10-28T19:00:06;21.10;;;6.22;;
29848;SDS011;16728;50.832;5.590;2022-10-28T19:03:24;16.02;;;6.00;;
29848;SDS011;16728;50.832;5.590;2022-10-28T19:06:26;24.23;;;6.30;;
29848;SDS011;16728;50.832;5.590;2022-10-28T19:09:32;18.00;;;6.25;;
29848;SDS011;16728;50.832;5.590;2022-10-28T19:12:34;18.27;;;6.43;;
29848;SDS011;16728;50.832;5.590;2022-10-28T19:15:44;21.00;;;6.57;;
29848;SDS011;16728;50.832;5.590;2022-10-28T19:18:47;20.10;;;6.07;;
29848;SDS011;16728;50.832;5.590;2022-10-28T19:21:49;20.47;;;7.03;;
29848;SDS011;16728;50.832;5.590;2022-10-28T19:24:51;19.08;;;6.57;;
29848;SDS011;16728;50.832;5.590;2022-10-28T19:27:54;19.58;;;6.88;;
29848;SDS011;16728;50.832;5.590;2022-10-28T19:31:00;18.33;;;6.60;;
29848;SDS011;16728;50.832;5.590;2022-10-28T19:34:02;17.70;;;6.03;;
29848;SDS011;16728;50.832;5.590;2022-10-28T19:37:04;18.60;;;6.13;;
29848;SDS011;16728;50.832;5.590;2022-10-28T19:40:06;19.95;;;6.80;;
29848;SDS011;16728;50.832;5.590;2022-10-28T19:43:09;18.43;;;6.40;;
29848;SDS011;16728;50.832;5.590;2022-10-28T19:46:17;18.45;;;6.45;;
29848;SDS011;16728;50.832;5.590;2022-10-28T19:49:20;14.15;;;6.38;;
29848;SDS011;16728;50.832;5.590;2022-10-28T19:52:28;14.00;;;6.88;;
29848;SDS011;16728;50.832;5.590;2022-10-28T19:55:31;19.42;;;6.53;;
29848;SDS011;16728;50.832;5.590;2022-10-28T19:58:33;19.05;;;6.65;;
29848;SDS011;16728;50.832;5.590;2022-10-28T20:01:38;13.82;;;5.72;;
29848;SDS011;16728;50.832;5.590;2022-10-28T20:07:42;18.38;;;6.40;;
29848;SDS011;16728;50.832;5.590;2022-10-28T20:10:44;13.30;;;6.47;;
29848;SDS011;16728;50.832;5.590;2022-10-28T20:13:58;17.60;;;6.68;;
29848;SDS011;16728;50.832;5.590;2022-10-28T20:17:04;20.38;;;6.75;;
29848;SDS011;16728;50.832;5.590;2022-10-28T20:20:07;21.67;;;7.03;;
29848;SDS011;16728;50.832;5.590;2022-10-28T20:23:09;17.70;;;6.85;;
29848;SDS011;16728;50.832;5.590;2022-10-28T20:26:11;18.45;;;6.80;;
29848;SDS011;16728;50.832;5.590;2022-10-28T20:29:13;17.63;;;7.20;;
29848;SDS011;16728;50.832;5.590;2022-10-28T20:32:16;16.33;;;6.20;;
29848;SDS011;16728;50.832;5.590;2022-10-28T20:35:18;20.02;;;6.35;;
29848;SDS011;16728;50.832;5.590;2022-10-28T20:41:52;18.17;;;6.18;;
29848;SDS011;16728;50.832;5.590;2022-10-28T20:44:54;22.58;;;7.03;;
29848;SDS011;16728;50.832;5.590;2022-10-28T20:47:56;17.88;;;6.65;;
29848;SDS011;16728;50.832;5.590;2022-10-28T20:50:59;17.90;;;7.03;;
29848;SDS011;16728;50.832;5.590;2022-10-28T20:54:01;21.50;;;6.45;;
29848;SDS011;16728;50.832;5.590;2022-10-28T20:57:03;18.38;;;6.57;;
29848;SDS011;16728;50.832;5.590;2022-10-28T21:00:05;21.23;;;6.50;;
29848;SDS011;16728;50.832;5.590;2022-10-28T21:03:08;20.55;;;6.63;;
29848;SDS011;16728;50.832;5.590;2022-10-28T21:06:11;16.58;;;6.70;;
29848;SDS011;16728;50.832;5.590;2022-10-28T21:09:15;17.70;;;5.97;;
29848;SDS011;16728;50.832;5.590;2022-10-28T21:12:17;20.40;;;6.25;;
29848;SDS011;16728;50.832;5.590;2022-10-28T21:15:19;20.25;;;7.28;;
29848;SDS011;16728;50.832;5.590;2022-10-28T21:18:21;19.58;;;6.18;;
29848;SDS011;16728;50.832;5.590;2022-10-28T21:21:23;17.55;;;6.45;;
29848;SDS011;16728;50.832;5.590;2022-10-28T21:24:25;21.83;;;6.40;;
29848;SDS011;16728;50.832;5.590;2022-10-28T21:27:28;17.10;;;6.28;;